createdAt,value
2023-05-18T00:00:36.600Z,79.33
2023-05-18T00:05:58.217Z,79.09
2023-05-18T00:11:06.930Z,79.17
2023-05-18T00:16:12.679Z,78.84
2023-05-18T00:21:16.706Z,79.06
2023-05-18T00:26:21.298Z,79.39
2023-05-18T00:31:27.139Z,79.17
2023-05-18T00:36:32.124Z,79.65
2023-05-18T00:41:36.880Z,79.68
2023-05-18T00:46:41.949Z,79.53
2023-05-18T00:51:46.410Z,79.32
2023-05-18T00:56:54.340Z,78.95
2023-05-18T01:02:05.242Z,79.68
2023-05-18T01:07:12.017Z,79.40
2023-05-18T01:12:24.697Z,80.26
2023-05-18T01:17:47.961Z,80.39
2023-05-18T01:23:24.108Z,80.64
2023-05-18T01:28:32.720Z,80.37
2023-05-18T01:33:36.847Z,79.83
2023-05-18T01:38:43.948Z,79.89
2023-05-18T01:44:34.216Z,80.27
2023-05-18T01:50:02.668Z,80.32
2023-05-18T01:55:07.801Z,79.80
2023-05-18T02:00:13.025Z,80.23
2023-05-18T02:05:23.827Z,80.35
2023-05-18T02:10:27.529Z,80.77
2023-05-18T02:15:31.722Z,81.13
2023-05-18T02:20:38.936Z,80.98
2023-05-18T02:25:44.856Z,80.78
2023-05-18T02:30:51.040Z,80.83
2023-05-18T02:35:54.863Z,80.96
2023-05-18T02:40:59.246Z,81.12
2023-05-18T02:46:06.205Z,81.30
2023-05-18T02:51:11.026Z,81.37
2023-05-18T02:56:15.233Z,81.10
2023-05-18T03:01:45.285Z,80.93
2023-05-18T03:06:53.437Z,80.79
2023-05-18T03:11:58.278Z,80.64
2023-05-18T03:17:06.284Z,81.31
2023-05-18T03:22:11.556Z,81.51
2023-05-18T03:27:16.921Z,82.21
2023-05-18T03:32:23.451Z,82.67
2023-05-18T03:37:27.732Z,82.10
2023-05-18T03:42:32.198Z,81.54
2023-05-18T03:47:40.222Z,80.97
2023-05-18T03:52:45.003Z,80.03
2023-05-18T03:57:49.846Z,79.92
2023-05-18T04:02:54.624Z,79.72
2023-05-18T04:08:01.311Z,79.52
2023-05-18T04:13:05.113Z,79.52
2023-05-18T04:18:10.897Z,79.53
2023-05-18T04:23:14.632Z,79.32
2023-05-18T04:28:19.662Z,79.32
2023-05-18T04:33:25.249Z,79.12
2023-05-18T04:38:35.197Z,78.83
2023-05-18T04:43:43.207Z,78.57
2023-05-18T04:48:53.275Z,78.11
2023-05-18T04:53:57.160Z,78.22
2023-05-18T04:59:02.804Z,77.97
2023-05-18T05:04:07.365Z,77.66
2023-05-18T05:09:14.324Z,77.06
2023-05-18T05:14:20.380Z,77.02
2023-05-18T05:19:24.315Z,76.61
2023-05-18T05:24:28.002Z,75.42
2023-05-18T05:29:31.796Z,75.05
2023-05-18T05:34:37.994Z,74.84
2023-05-18T05:39:42.515Z,74.06
2023-05-18T05:44:47.271Z,73.15
2023-05-18T05:49:51.368Z,72.80
2023-05-18T05:54:56.440Z,72.32
2023-05-18T06:00:00.741Z,70.72
2023-05-18T06:05:06.358Z,69.13
2023-05-18T06:10:10.297Z,68.55
2023-05-18T06:15:15.158Z,66.48
2023-05-18T06:20:18.861Z,64.88
2023-05-18T06:25:25.774Z,64.82
2023-05-18T06:30:44.635Z,64.09
2023-05-18T06:36:13.096Z,63.88
2023-05-18T06:41:17.276Z,64.23
2023-05-18T06:46:24.706Z,63.44
2023-05-18T06:51:32.701Z,62.51
2023-05-18T06:56:39.277Z,62.45
2023-05-18T07:01:43.079Z,62.65
2023-05-18T07:06:50.189Z,62.05
2023-05-18T07:11:53.938Z,61.30
2023-05-18T07:16:57.666Z,61.77
2023-05-18T07:22:01.525Z,58.53
2023-05-18T07:27:06.261Z,59.42
2023-05-18T07:32:09.985Z,57.93
2023-05-18T07:37:14.255Z,57.73
2023-05-18T07:42:18.094Z,57.69
2023-05-18T07:47:21.945Z,56.84
2023-05-18T07:52:26.145Z,56.53
2023-05-18T07:57:31.446Z,56.41
2023-05-18T08:02:35.149Z,56.17
2023-05-18T08:07:38.888Z,55.07
2023-05-18T08:12:43.415Z,55.15
2023-05-18T08:17:47.761Z,55.99
2023-05-18T08:22:51.691Z,54.01
2023-05-18T08:27:55.302Z,54.80
2023-05-18T08:32:59.338Z,54.18
2023-05-18T08:38:05.394Z,54.40
2023-05-18T08:43:19.653Z,52.92
2023-05-18T08:48:27.220Z,52.93
2023-05-18T08:53:34.027Z,52.52
2023-05-18T08:58:45.012Z,53.51
2023-05-18T09:03:51.578Z,52.51
2023-05-18T09:09:04.589Z,53.33
2023-05-18T09:14:08.581Z,52.76
2023-05-18T09:19:12.342Z,51.85
2023-05-18T09:24:16.632Z,50.73
2023-05-18T09:29:22.113Z,51.63
2023-05-18T09:34:25.828Z,51.27
2023-05-18T09:39:29.534Z,50.88
2023-05-18T09:44:36.406Z,50.56
2023-05-18T09:49:41.144Z,50.82
2023-05-18T09:54:44.861Z,50.58
2023-05-18T09:59:59.177Z,50.23
2023-05-18T10:05:03.126Z,48.66
2023-05-18T10:10:09.098Z,48.77
2023-05-18T10:15:18.057Z,50.27
2023-05-18T10:20:24.872Z,49.65
2023-05-18T10:25:29.818Z,49.32
2023-05-18T10:30:34.764Z,48.27
2023-05-18T10:35:39.569Z,48.00
2023-05-18T10:40:44.454Z,48.55
2023-05-18T10:45:53.052Z,49.15
2023-05-18T10:50:58.350Z,48.59
2023-05-18T10:56:03.808Z,48.51
2023-05-18T11:01:10.180Z,49.53
2023-05-18T11:06:15.367Z,46.85
2023-05-18T11:11:24.761Z,45.60
2023-05-18T11:16:36.204Z,46.99
2023-05-18T11:21:42.081Z,46.02
2023-05-18T11:26:50.183Z,46.56
2023-05-18T11:31:56.129Z,46.76
2023-05-18T11:37:01.765Z,46.41
2023-05-18T11:42:14.871Z,46.13
2023-05-18T11:47:19.175Z,46.78
2023-05-18T11:52:24.441Z,46.49
2023-05-18T11:57:34.428Z,46.94
2023-05-18T12:02:46.627Z,45.75
2023-05-18T12:07:56.840Z,45.92
2023-05-18T12:13:01.528Z,42.82
2023-05-18T12:18:11.469Z,41.15
2023-05-18T12:23:15.742Z,42.01
2023-05-18T12:28:19.473Z,41.65
2023-05-18T12:33:23.237Z,42.74
2023-05-18T12:38:29.695Z,40.30
2023-05-18T12:43:39.494Z,41.08
2023-05-18T12:48:49.503Z,40.73
2023-05-18T12:53:53.174Z,41.78
2023-05-18T12:59:03.362Z,41.74
2023-05-18T13:04:12.130Z,40.25
2023-05-18T13:09:17.236Z,41.68
2023-05-18T13:14:31.207Z,41.34
2023-05-18T13:19:37.861Z,39.29
2023-05-18T13:24:43.204Z,38.93
2023-05-18T13:29:47.169Z,39.45
2023-05-18T13:34:52.786Z,40.23
2023-05-18T13:40:03.166Z,41.48
2023-05-18T13:45:08.388Z,41.42
2023-05-18T13:50:12.889Z,39.85
2023-05-18T13:55:16.766Z,40.20
2023-05-18T14:00:21.123Z,40.09
2023-05-18T14:05:25.508Z,40.69
2023-05-18T14:10:29.792Z,39.75
2023-05-18T14:15:33.623Z,39.74
2023-05-18T14:20:38.290Z,39.89
2023-05-18T14:25:43.980Z,40.17
2023-05-18T14:30:47.720Z,40.64
2023-05-18T14:35:51.615Z,41.01
2023-05-18T14:40:55.359Z,39.96
2023-05-18T14:46:08.100Z,39.23
2023-05-18T14:51:13.819Z,39.96
2023-05-18T14:56:17.624Z,40.07
2023-05-18T15:01:21.638Z,40.18
2023-05-18T15:06:26.625Z,39.62
2023-05-18T15:11:30.322Z,40.75
2023-05-18T15:16:34.328Z,40.16
2023-05-18T15:21:40.493Z,40.68
2023-05-18T15:26:45.003Z,41.54
2023-05-18T15:31:53.074Z,41.61
2023-05-18T15:36:57.121Z,40.93
2023-05-18T15:42:05.290Z,40.86
2023-05-18T15:47:09.093Z,41.26
2023-05-18T15:52:12.880Z,42.33
2023-05-18T15:57:16.622Z,42.52
2023-05-18T16:02:20.367Z,43.41
2023-05-18T16:07:24.799Z,42.83
2023-05-18T16:12:28.393Z,42.88
2023-05-18T16:17:32.611Z,42.64
2023-05-18T16:22:36.244Z,43.10
2023-05-18T16:27:39.874Z,43.43
2023-05-18T16:32:44.770Z,43.73
2023-05-18T16:37:48.407Z,44.07
2023-05-18T16:42:52.167Z,43.50
2023-05-18T16:47:56.046Z,42.75
2023-05-18T16:52:59.765Z,42.12
2023-05-18T16:58:04.396Z,40.19
2023-05-18T17:03:11.341Z,40.11
2023-05-18T17:08:15.414Z,41.61
2023-05-18T17:13:19.140Z,42.81
2023-05-18T17:18:22.818Z,42.13
2023-05-18T17:23:26.499Z,40.62
2023-05-18T17:28:30.340Z,40.34
2023-05-18T17:33:34.245Z,41.26
2023-05-18T17:38:38.484Z,41.67
2023-05-18T17:43:42.442Z,42.75
2023-05-18T17:48:49.320Z,43.56
2023-05-18T17:53:53.251Z,44.53
2023-05-18T17:58:59.022Z,45.51
2023-05-18T18:04:03.037Z,46.12
2023-05-18T18:09:07.241Z,47.40
2023-05-18T18:14:15.798Z,48.64
2023-05-18T18:19:20.495Z,49.71
2023-05-18T18:24:24.805Z,50.23
2023-05-18T18:29:30.949Z,50.98
2023-05-18T18:34:41.335Z,51.22
2023-05-18T18:39:45.147Z,51.59
2023-05-18T18:44:49.777Z,53.40
2023-05-18T18:49:53.729Z,52.45
2023-05-18T18:54:58.782Z,52.86
2023-05-18T19:00:02.676Z,53.30
2023-05-18T19:05:11.413Z,53.63
2023-05-18T19:10:15.917Z,54.36
2023-05-18T19:15:22.707Z,54.77
2023-05-18T19:20:27.105Z,55.52
2023-05-18T19:25:32.303Z,55.88
2023-05-18T19:30:36.946Z,56.58
2023-05-18T19:35:40.958Z,57.50
2023-05-18T19:40:44.771Z,59.91
2023-05-18T19:45:50.473Z,59.01
2023-05-18T19:50:54.803Z,58.66
2023-05-18T19:56:00.068Z,60.02
2023-05-18T20:01:04.753Z,60.60
2023-05-18T20:06:08.592Z,61.55
2023-05-18T20:11:12.621Z,61.52
2023-05-18T20:16:20.688Z,61.08
2023-05-18T20:21:25.769Z,62.44
2023-05-18T20:26:31.946Z,62.95
2023-05-18T20:31:37.613Z,63.12
2023-05-18T20:36:41.580Z,63.89
2023-05-18T20:41:45.222Z,65.65
2023-05-18T20:46:53.365Z,65.91
2023-05-18T20:51:57.218Z,65.67
2023-05-18T20:57:01.184Z,66.07
2023-05-18T21:02:05.262Z,67.97
2023-05-18T21:07:10.285Z,69.46
2023-05-18T21:12:14.154Z,69.72
2023-05-18T21:17:18.550Z,68.77
2023-05-18T21:22:22.537Z,68.65
2023-05-18T21:27:27.265Z,67.76
2023-05-18T21:32:31.572Z,67.64
2023-05-18T21:37:35.487Z,67.80
2023-05-18T21:42:45.375Z,69.93
2023-05-18T21:47:51.073Z,69.51
2023-05-18T21:52:55.535Z,69.85
2023-05-18T21:57:59.904Z,70.99
2023-05-18T22:03:05.557Z,71.64
2023-05-18T22:08:09.879Z,71.63
2023-05-18T22:13:13.559Z,71.58
2023-05-18T22:18:19.606Z,70.78
2023-05-18T22:23:23.779Z,70.87
2023-05-18T22:28:28.585Z,70.78
2023-05-18T22:33:32.315Z,71.28
2023-05-18T22:38:36.198Z,71.03
2023-05-18T22:43:40.754Z,71.22
2023-05-18T22:48:45.965Z,72.66
2023-05-18T22:53:49.687Z,72.92
2023-05-18T22:58:53.845Z,74.21
2023-05-18T23:03:59.540Z,73.25
2023-05-18T23:09:04.319Z,73.05
2023-05-18T23:14:08.878Z,73.61
2023-05-18T23:19:15.226Z,73.60
2023-05-18T23:24:19.326Z,73.42
2023-05-18T23:29:22.956Z,74.15
2023-05-18T23:34:27.830Z,74.00
2023-05-18T23:39:33.046Z,74.15
2023-05-18T23:44:37.547Z,73.90
2023-05-18T23:49:41.489Z,74.25
2023-05-18T23:54:50.701Z,75.00
2023-05-18T23:59:55.803Z,75.25
